Time;durP1;ratioP1;P1;durP2;ratioP2;P2;SDS_P1;SDS_P2;PMS_P1;PMS_P2;Temp;Humidity;BMP_temperature;BMP_pressure;BME280_temperature;BME280_humidity;BME280_pressure;Samples;Min_cycle;Max_cycle;Signal;HPM_P1;HPM_P2
2022/10/18 00:00:18;;;;;;;;;;;17.30;94.90;;;;;;5045444;28;19928;-79
2022/10/18 00:02:45;;;;;;;;;;;17.30;95.00;;;;;;5040218;28;19935;-78
2022/10/18 00:05:11;;;;;;;;;;;17.30;95.00;;;;;;5045168;28;20436;-80
2022/10/18 00:07:38;;;;;;;;;;;17.30;95.00;;;;;;5044782;28;19929;-79
2022/10/18 00:10:05;;;;;;;;;;;17.30;95.00;;;;;;5042922;28;19940;-79
2022/10/18 00:12:34;;;;;;;;;;;17.20;95.00;;;;;;5043833;28;19929;-78
2022/10/18 00:15:01;;;;;;;;;;;17.30;95.00;;;;;;5045422;28;20037;-79
2022/10/18 00:17:28;;;;;;;;;;;17.30;95.10;;;;;;5044526;28;19964;-79
2022/10/18 00:19:54;;;;;;;;;;;17.20;95.10;;;;;;5045168;28;19940;-79
2022/10/18 00:22:21;;;;;;;;;;;17.20;95.10;;;;;;5045609;28;19929;-79
2022/10/18 00:24:47;;;;;;;;;;;17.20;95.10;;;;;;5045153;28;19928;-78
2022/10/18 00:27:14;;;;;;;;;;;17.20;95.10;;;;;;5041184;28;20427;-78
2022/10/18 00:29:42;;;;;;;;;;;17.20;95.10;;;;;;5043233;28;20316;-82
2022/10/18 00:32:10;;;;;;;;;;;17.10;95.20;;;;;;5039780;28;19948;-79
2022/10/18 00:34:38;;;;;;;;;;;17.20;95.20;;;;;;5043770;28;20463;-79
2022/10/18 00:37:04;;;;;;;;;;;17.20;95.20;;;;;;5043726;28;19935;-79
2022/10/18 00:39:31;;;;;;;;;;;17.20;95.20;;;;;;5043512;28;19933;-79
2022/10/18 00:41:57;;;;;;;;;;;17.10;95.20;;;;;;5042169;28;19940;-79
2022/10/18 00:44:42;;;;;;;;;;;17.10;95.30;;;;;;5045393;28;19929;-79
2022/10/18 00:47:11;;;;;;;;;;;17.10;95.30;;;;;;5045599;28;19935;-79
2022/10/18 00:49:40;;;;;;;;;;;17.10;95.30;;;;;;5040245;28;19933;-79
2022/10/18 00:52:09;;;;;;;;;;;17.10;95.30;;;;;;5047343;28;20240;-79
2022/10/18 00:54:36;;;;;;;;;;;17.10;95.30;;;;;;5044798;28;19933;-79
2022/10/18 00:57:03;;;;;;;;;;;17.10;95.40;;;;;;5043859;28;19933;-78
2022/10/18 00:59:30;;;;;;;;;;;17.10;95.40;;;;;;5045275;28;20667;-79
2022/10/18 01:01:56;;;;;;;;;;;17.10;95.40;;;;;;5046971;28;19929;-80
2022/10/18 01:04:25;;;;;;;;;;;17.10;95.50;;;;;;5026690;28;20408;-79
2022/10/18 01:06:55;;;;;;;;;;;17.10;95.50;;;;;;5043180;28;20351;-79
2022/10/18 01:09:26;;;;;;;;;;;17.10;95.50;;;;;;5043080;28;19935;-79
2022/10/18 01:12:02;;;;;;;;;;;17.10;95.50;;;;;;5044453;28;19929;-79
2022/10/18 01:14:35;;;;;;;;;;;17.10;95.50;;;;;;5045301;28;19932;-78
2022/10/18 01:17:07;;;;;;;;;;;17.10;95.50;;;;;;5043241;28;19936;-79
2022/10/18 01:19:53;;;;;;;;;;;17.10;95.60;;;;;;5045978;28;20443;-78
2022/10/18 01:22:23;;;;;;;;;;;17.00;95.60;;;;;;5046359;28;19932;-79
2022/10/18 01:25:02;;;;;;;;;;;17.00;95.60;;;;;;5041034;28;19929;-79
2022/10/18 01:27:43;;;;;;;;;;;17.00;95.60;;;;;;5044499;28;20751;-79
2022/10/18 01:30:23;;;;;;;;;;;17.00;95.60;;;;;;5041266;28;19934;-79
2022/10/18 01:32:51;;;;;;;;;;;17.00;95.70;;;;;;5049554;28;20467;-79
2022/10/18 01:35:19;;;;;;;;;;;17.00;95.70;;;;;;5047955;28;19951;-79
2022/10/18 01:37:47;;;;;;;;;;;17.00;95.70;;;;;;5047874;28;19936;-79
2022/10/18 01:40:15;;;;;;;;;;;17.00;95.70;;;;;;5043461;28;19936;-79
2022/10/18 01:42:42;;;;;;;;;;;17.00;95.70;;;;;;5043020;28;19928;-80
2022/10/18 01:45:10;;;;;;;;;;;17.00;95.70;;;;;;5044034;28;19928;-80
2022/10/18 01:47:38;;;;;;;;;;;17.00;95.70;;;;;;5042321;28;19935;-78
2022/10/18 01:50:06;;;;;;;;;;;16.90;95.70;;;;;;5044111;28;19935;-79
2022/10/18 01:52:32;;;;;;;;;;;17.00;95.70;;;;;;5043070;28;19929;-79
2022/10/18 01:55:00;;;;;;;;;;;17.00;95.70;;;;;;5043939;28;19932;-78
2022/10/18 01:57:31;;;;;;;;;;;17.00;95.70;;;;;;5044236;28;19932;-79
2022/10/18 01:59:59;;;;;;;;;;;17.00;95.70;;;;;;5042092;28;20961;-80
2022/10/18 02:02:31;;;;;;;;;;;17.00;95.70;;;;;;5040388;28;19928;-79
2022/10/18 02:05:02;;;;;;;;;;;16.90;95.70;;;;;;5042757;28;20594;-79
2022/10/18 02:07:32;;;;;;;;;;;17.00;95.80;;;;;;5042348;28;19929;-79
2022/10/18 02:10:02;;;;;;;;;;;17.00;95.80;;;;;;5044944;28;19939;-79
2022/10/18 02:12:29;;;;;;;;;;;16.90;95.80;;;;;;5043661;28;19939;-78
2022/10/18 02:14:57;;;;;;;;;;;16.90;95.80;;;;;;5044724;28;19939;-79
2022/10/18 02:17:26;;;;;;;;;;;16.90;95.80;;;;;;5043773;28;19933;-79
2022/10/18 02:19:54;;;;;;;;;;;16.90;95.80;;;;;;5043067;28;19929;-79
2022/10/18 02:22:22;;;;;;;;;;;16.90;95.80;;;;;;5042352;28;19956;-79
2022/10/18 02:24:50;;;;;;;;;;;16.90;95.80;;;;;;5042356;28;19936;-79
2022/10/18 02:27:17;;;;;;;;;;;16.90;95.90;;;;;;5042357;28;19933;-79
2022/10/18 02:29:45;;;;;;;;;;;16.90;95.90;;;;;;5042714;28;19936;-78
2022/10/18 02:32:16;;;;;;;;;;;16.90;95.90;;;;;;5043653;28;20537;-79
2022/10/18 02:34:43;;;;;;;;;;;16.90;95.90;;;;;;5042823;28;19929;-79
2022/10/18 02:37:11;;;;;;;;;;;16.90;96.00;;;;;;5043552;28;19929;-81
2022/10/18 02:39:41;;;;;;;;;;;16.90;96.00;;;;;;5043609;28;20035;-79
2022/10/18 02:42:09;;;;;;;;;;;16.90;96.00;;;;;;5043306;28;20384;-79
2022/10/18 02:44:37;;;;;;;;;;;16.90;96.00;;;;;;5044377;28;19929;-79
2022/10/18 02:47:04;;;;;;;;;;;16.90;96.00;;;;;;5043446;28;19935;-79
2022/10/18 02:49:31;;;;;;;;;;;16.90;96.00;;;;;;5043888;28;19955;-80
2022/10/18 02:51:57;;;;;;;;;;;16.80;96.00;;;;;;5042312;28;19929;-79
2022/10/18 02:54:24;;;;;;;;;;;16.80;96.00;;;;;;5040572;28;19987;-79
2022/10/18 02:56:52;;;;;;;;;;;16.80;96.00;;;;;;5041614;28;19933;-80
2022/10/18 02:59:18;;;;;;;;;;;16.80;96.00;;;;;;5047819;28;19933;-79
2022/10/18 03:01:45;;;;;;;;;;;16.80;96.10;;;;;;5043453;28;19940;-80
2022/10/18 03:04:12;;;;;;;;;;;16.80;96.10;;;;;;5047143;28;19928;-79
2022/10/18 03:06:38;;;;;;;;;;;16.70;96.10;;;;;;5048055;28;19936;-79
2022/10/18 03:09:05;;;;;;;;;;;16.70;96.10;;;;;;5048012;28;19932;-78
2022/10/18 03:11:32;;;;;;;;;;;16.70;96.10;;;;;;5045375;28;19936;-79
2022/10/18 03:14:00;;;;;;;;;;;16.70;96.10;;;;;;5048437;28;19928;-79
2022/10/18 03:16:26;;;;;;;;;;;16.70;96.10;;;;;;5047758;28;19928;-79
2022/10/18 03:18:53;;;;;;;;;;;16.70;96.10;;;;;;5045568;28;20416;-79
2022/10/18 03:21:20;;;;;;;;;;;16.70;96.10;;;;;;5049431;28;21537;-79
2022/10/18 03:23:46;;;;;;;;;;;16.60;96.00;;;;;;5049483;28;19933;-79
2022/10/18 03:26:13;;;;;;;;;;;16.60;96.00;;;;;;5048981;28;19929;-79
2022/10/18 03:28:39;;;;;;;;;;;16.60;96.10;;;;;;5051451;28;19929;-79
2022/10/18 03:31:07;;;;;;;;;;;16.50;96.20;;;;;;5051915;28;19936;-79
2022/10/18 03:33:34;;;;;;;;;;;16.50;96.50;;;;;;5052229;28;19928;-79
2022/10/18 03:36:00;;;;;;;;;;;16.50;96.30;;;;;;5054214;28;19943;-79
2022/10/18 03:38:27;;;;;;;;;;;16.50;96.30;;;;;;5049725;28;19940;-79
2022/10/18 03:40:54;;;;;;;;;;;16.50;96.30;;;;;;5048917;28;19936;-79
2022/10/18 03:43:20;;;;;;;;;;;16.50;96.40;;;;;;5051475;28;19936;-79
2022/10/18 03:45:47;;;;;;;;;;;16.50;96.40;;;;;;5052428;28;19928;-79
2022/10/18 03:48:15;;;;;;;;;;;16.50;96.40;;;;;;5051973;28;19928;-79
2022/10/18 03:50:42;;;;;;;;;;;16.50;96.40;;;;;;5054153;28;19933;-79
2022/10/18 03:53:08;;;;;;;;;;;16.50;96.40;;;;;;5054467;28;19940;-79
2022/10/18 03:55:36;;;;;;;;;;;16.50;96.40;;;;;;5053226;28;20574;-79
2022/10/18 03:58:03;;;;;;;;;;;16.50;96.40;;;;;;5052080;28;19943;-79
2022/10/18 04:00:29;;;;;;;;;;;16.40;96.40;;;;;;5053395;28;19936;-80
2022/10/18 04:02:56;;;;;;;;;;;16.40;96.50;;;;;;5052273;28;19929;-80
2022/10/18 04:05:26;;;;;;;;;;;16.40;96.50;;;;;;5053860;28;20668;-80
2022/10/18 04:07:53;;;;;;;;;;;16.40;96.50;;;;;;5052694;28;19928;-79
2022/10/18 04:10:20;;;;;;;;;;;16.40;96.50;;;;;;5052608;28;19936;-79
2022/10/18 04:12:46;;;;;;;;;;;16.40;96.50;;;;;;5047450;28;19929;-80
2022/10/18 04:15:13;;;;;;;;;;;16.40;96.50;;;;;;5049073;28;19929;-80
2022/10/18 04:17:39;;;;;;;;;;;16.40;96.50;;;;;;5052156;28;20303;-81
2022/10/18 04:20:07;;;;;;;;;;;16.40;96.50;;;;;;5052161;28;20293;-79
2022/10/18 04:22:35;;;;;;;;;;;16.40;96.50;;;;;;5053631;28;19933;-79
2022/10/18 04:25:01;;;;;;;;;;;16.40;96.50;;;;;;5053285;28;19928;-79
2022/10/18 04:27:28;;;;;;;;;;;16.40;96.50;;;;;;5049874;28;19932;-80
2022/10/18 04:29:54;;;;;;;;;;;16.40;96.60;;;;;;5051895;28;19929;-80
2022/10/18 04:32:21;;;;;;;;;;;16.30;96.50;;;;;;5048637;28;19929;-80
2022/10/18 04:34:47;;;;;;;;;;;16.30;96.50;;;;;;5052558;28;19941;-80
2022/10/18 04:37:14;;;;;;;;;;;16.30;96.60;;;;;;5053522;28;19937;-79
2022/10/18 04:39:45;;;;;;;;;;;16.30;96.60;;;;;;5052809;28;19929;-80
2022/10/18 04:42:12;;;;;;;;;;;16.30;96.60;;;;;;5051121;28;19940;-81
2022/10/18 04:44:38;;;;;;;;;;;16.30;96.60;;;;;;5051682;28;19936;-80
2022/10/18 04:47:05;;;;;;;;;;;16.30;96.60;;;;;;5053666;28;19985;-80
2022/10/18 04:49:32;;;;;;;;;;;16.30;96.60;;;;;;5051765;28;19929;-79
2022/10/18 04:51:58;;;;;;;;;;;16.30;96.60;;;;;;5051677;28;19936;-79
2022/10/18 04:54:25;;;;;;;;;;;16.30;96.60;;;;;;5049087;28;19929;-80
2022/10/18 04:56:53;;;;;;;;;;;16.30;96.60;;;;;;5049331;28;19937;-80
2022/10/18 04:59:20;;;;;;;;;;;16.20;96.60;;;;;;5048536;28;19925;-80
2022/10/18 05:01:46;;;;;;;;;;;16.30;96.70;;;;;;5045087;28;19932;-79
2022/10/18 05:04:13;;;;;;;;;;;16.30;96.70;;;;;;5046083;28;20523;-79
2022/10/18 05:06:39;;;;;;;;;;;16.20;96.60;;;;;;5052789;28;19929;-79
2022/10/18 05:09:06;;;;;;;;;;;16.20;96.70;;;;;;5050653;28;19929;-79
2022/10/18 05:11:33;;;;;;;;;;;16.20;96.70;;;;;;5049983;28;19933;-79
2022/10/18 05:14:01;;;;;;;;;;;16.20;96.70;;;;;;5047650;28;20483;-80
2022/10/18 05:16:28;;;;;;;;;;;16.20;96.70;;;;;;5052484;28;19925;-80
2022/10/18 05:18:54;;;;;;;;;;;16.20;96.70;;;;;;5047498;28;19993;-79
2022/10/18 05:21:21;;;;;;;;;;;16.20;96.70;;;;;;5050851;28;19925;-80
2022/10/18 05:23:47;;;;;;;;;;;16.20;96.70;;;;;;5050550;28;20568;-79
2022/10/18 05:26:14;;;;;;;;;;;16.10;96.70;;;;;;5052485;28;19928;-79
2022/10/18 05:28:40;;;;;;;;;;;16.10;96.70;;;;;;5045274;28;19940;-80
2022/10/18 05:31:09;;;;;;;;;;;16.10;96.80;;;;;;5051829;28;19925;-79
2022/10/18 05:33:36;;;;;;;;;;;16.10;96.80;;;;;;5042009;28;19936;-78
2022/10/18 05:36:02;;;;;;;;;;;16.10;96.80;;;;;;5047137;28;19940;-79
2022/10/18 05:38:30;;;;;;;;;;;16.10;96.80;;;;;;5053230;28;19932;-79
2022/10/18 05:40:56;;;;;;;;;;;16.10;96.80;;;;;;5051833;28;19944;-79
2022/10/18 05:43:23;;;;;;;;;;;16.10;96.80;;;;;;5054570;28;19940;-79
2022/10/18 05:45:50;;;;;;;;;;;16.10;96.80;;;;;;5054406;28;19932;-80
2022/10/18 05:48:18;;;;;;;;;;;16.10;96.90;;;;;;5050115;28;19935;-79
2022/10/18 05:50:45;;;;;;;;;;;16.10;96.90;;;;;;5048235;28;20397;-69
2022/10/18 05:53:11;;;;;;;;;;;16.10;96.80;;;;;;5043196;28;19929;-70
2022/10/18 05:55:38;;;;;;;;;;;16.10;96.90;;;;;;5036808;28;19936;-70
2022/10/18 05:58:04;;;;;;;;;;;16.10;96.90;;;;;;5035058;28;19928;-70
2022/10/18 06:00:31;;;;;;;;;;;16.10;96.90;;;;;;5041354;28;19947;-69
2022/10/18 06:02:57;;;;;;;;;;;16.00;96.80;;;;;;5036938;28;19928;-70
2022/10/18 06:05:25;;;;;;;;;;;16.00;96.80;;;;;;5038443;28;19936;-69
2022/10/18 06:07:52;;;;;;;;;;;16.10;96.90;;;;;;5041633;28;19928;-70
2022/10/18 06:10:18;;;;;;;;;;;16.00;96.80;;;;;;5039578;28;19929;-69
2022/10/18 06:12:45;;;;;;;;;;;16.00;96.80;;;;;;5040064;28;19936;-70
2022/10/18 06:15:11;;;;;;;;;;;16.00;96.80;;;;;;5043449;28;19935;-69
2022/10/18 06:17:38;;;;;;;;;;;16.00;96.80;;;;;;5037318;28;20511;-69
2022/10/18 06:20:06;;;;;;;;;;;16.00;96.80;;;;;;5043048;28;20336;-69
2022/10/18 06:22:34;;;;;;;;;;;16.00;96.80;;;;;;5038748;28;20019;-70
2022/10/18 06:25:00;;;;;;;;;;;16.00;96.80;;;;;;5035943;28;19929;-69
2022/10/18 06:27:27;;;;;;;;;;;16.00;96.80;;;;;;5040978;28;19936;-69
2022/10/18 06:29:53;;;;;;;;;;;16.00;96.80;;;;;;5041294;28;20303;-70
2022/10/18 06:32:20;;;;;;;;;;;16.00;96.80;;;;;;5041714;28;19933;-70
2022/10/18 06:34:46;;;;;;;;;;;16.00;96.80;;;;;;5041262;28;19924;-69
2022/10/18 06:37:13;;;;;;;;;;;16.00;96.80;;;;;;5044169;28;19925;-68
2022/10/18 06:39:41;;;;;;;;;;;16.00;96.80;;;;;;5045884;28;19925;-78
2022/10/18 06:42:07;;;;;;;;;;;16.00;96.80;;;;;;5049689;28;20364;-78
2022/10/18 06:44:34;;;;;;;;;;;16.00;96.80;;;;;;5050383;28;19929;-78
2022/10/18 06:47:00;;;;;;;;;;;16.00;96.80;;;;;;5051378;28;20408;-79
2022/10/18 06:49:27;;;;;;;;;;;16.00;96.80;;;;;;5049710;28;19928;-79
2022/10/18 06:51:54;;;;;;;;;;;16.00;96.80;;;;;;5051013;28;19940;-79
2022/10/18 06:54:20;;;;;;;;;;;16.00;96.80;;;;;;5045544;28;19936;-79
2022/10/18 06:56:48;;;;;;;;;;;16.00;96.70;;;;;;5047845;28;19929;-78
2022/10/18 06:59:15;;;;;;;;;;;16.00;96.70;;;;;;5049629;28;20300;-78
2022/10/18 07:01:42;;;;;;;;;;;16.00;96.70;;;;;;5045776;28;19928;-79
2022/10/18 07:04:08;;;;;;;;;;;16.00;96.70;;;;;;5043802;28;19929;-78
2022/10/18 07:06:35;;;;;;;;;;;16.10;96.80;;;;;;5046509;28;19955;-79
2022/10/18 07:09:02;;;;;;;;;;;16.00;96.70;;;;;;5043407;28;19936;-78
2022/10/18 07:11:29;;;;;;;;;;;16.10;96.70;;;;;;5047483;28;19929;-78
2022/10/18 07:14:01;;;;;;;;;;;16.10;96.70;;;;;;5046814;28;19937;-78
2022/10/18 07:16:28;;;;;;;;;;;16.10;96.70;;;;;;5041917;28;19929;-79
2022/10/18 07:18:55;;;;;;;;;;;16.10;96.70;;;;;;5048671;28;19935;-78
2022/10/18 07:21:22;;;;;;;;;;;16.10;96.70;;;;;;5047171;28;19933;-79
2022/10/18 07:23:49;;;;;;;;;;;16.10;96.70;;;;;;5046894;28;19929;-79
2022/10/18 07:26:17;;;;;;;;;;;16.10;96.70;;;;;;5048409;28;19925;-79
2022/10/18 07:28:45;;;;;;;;;;;16.10;96.70;;;;;;5049753;28;19933;-78
2022/10/18 07:31:13;;;;;;;;;;;16.10;96.70;;;;;;5047468;28;19958;-79
2022/10/18 07:33:41;;;;;;;;;;;16.20;96.70;;;;;;5039971;28;19936;-77
2022/10/18 07:36:09;;;;;;;;;;;16.20;96.70;;;;;;5043834;28;20352;-78
2022/10/18 07:38:35;;;;;;;;;;;16.10;96.60;;;;;;5045137;28;20445;-79
2022/10/18 07:41:05;;;;;;;;;;;16.20;96.70;;;;;;5043291;28;19991;-78
2022/10/18 07:43:31;;;;;;;;;;;16.20;96.70;;;;;;5047846;28;19932;-79
2022/10/18 07:45:59;;;;;;;;;;;16.20;96.70;;;;;;5050738;28;20479;-78
2022/10/18 07:48:27;;;;;;;;;;;16.20;96.70;;;;;;5047941;28;19951;-79
2022/10/18 07:50:54;;;;;;;;;;;16.20;96.70;;;;;;5044620;28;19933;-79
2022/10/18 07:53:20;;;;;;;;;;;16.20;96.70;;;;;;5049418;28;19929;-78
2022/10/18 07:55:47;;;;;;;;;;;16.20;96.60;;;;;;5050906;28;19936;-78
2022/10/18 07:58:14;;;;;;;;;;;16.20;96.60;;;;;;5047954;28;20388;-78
2022/10/18 08:00:40;;;;;;;;;;;16.20;96.60;;;;;;5050158;28;20553;-78
2022/10/18 08:03:07;;;;;;;;;;;16.30;96.60;;;;;;5048982;28;20418;-78
2022/10/18 08:05:34;;;;;;;;;;;16.30;96.60;;;;;;5048405;28;20325;-79
2022/10/18 08:08:01;;;;;;;;;;;16.30;96.60;;;;;;5048824;28;19933;-78
2022/10/18 08:10:28;;;;;;;;;;;16.30;96.60;;;;;;5049171;28;19936;-79
2022/10/18 08:12:54;;;;;;;;;;;16.30;96.60;;;;;;5043971;28;19963;-79
2022/10/18 08:15:23;;;;;;;;;;;16.30;96.70;;;;;;5047469;28;19933;-79
2022/10/18 08:17:50;;;;;;;;;;;16.30;96.70;;;;;;5043658;28;19951;-79
2022/10/18 08:20:16;;;;;;;;;;;16.30;96.80;;;;;;5047511;28;19936;-79
2022/10/18 08:22:44;;;;;;;;;;;16.30;96.90;;;;;;5048351;28;19929;-78
2022/10/18 08:25:11;;;;;;;;;;;16.30;96.90;;;;;;5045496;28;20024;-78
2022/10/18 08:27:37;;;;;;;;;;;16.30;96.90;;;;;;5048609;28;19964;-79
2022/10/18 08:30:04;;;;;;;;;;;16.40;96.90;;;;;;5048771;28;19933;-79
2022/10/18 08:32:31;;;;;;;;;;;16.40;97.00;;;;;;5046676;28;19965;-79
2022/10/18 08:34:57;;;;;;;;;;;16.40;97.00;;;;;;5038532;28;19928;-77
2022/10/18 08:37:24;;;;;;;;;;;16.40;97.00;;;;;;5042774;28;19932;-77
2022/10/18 08:39:52;;;;;;;;;;;16.40;97.00;;;;;;5041630;28;19939;-77
2022/10/18 08:42:37;;;;;;;;;;;16.40;97.00;;;;;;5042950;28;19939;-77
2022/10/18 08:45:04;;;;;;;;;;;16.40;96.90;;;;;;5043150;28;19929;-77
2022/10/18 08:47:31;;;;;;;;;;;16.50;96.90;;;;;;5042450;28;19933;-77
2022/10/18 08:49:59;;;;;;;;;;;16.50;96.90;;;;;;5043385;28;19939;-76
2022/10/18 08:52:31;;;;;;;;;;;16.50;97.00;;;;;;5041600;28;19933;-77
2022/10/18 08:55:01;;;;;;;;;;;16.50;97.10;;;;;;5042515;28;20378;-77
2022/10/18 08:57:28;;;;;;;;;;;16.50;97.10;;;;;;5037391;28;19933;-77
2022/10/18 08:59:55;;;;;;;;;;;16.50;97.10;;;;;;5047301;28;19932;-78
2022/10/18 09:02:31;;;;;;;;;;;16.60;97.20;;;;;;5041068;28;19952;-77
2022/10/18 09:05:03;;;;;;;;;;;16.60;97.20;;;;;;5045559;28;19936;-77
2022/10/18 09:07:46;;;;;;;;;;;16.60;97.20;;;;;;5041880;28;19928;-77
2022/10/18 09:10:19;;;;;;;;;;;16.60;97.20;;;;;;5042412;28;19982;-77
2022/10/18 09:13:05;;;;;;;;;;;16.60;97.20;;;;;;5043204;28;19933;-78
2022/10/18 09:15:36;;;;;;;;;;;16.60;97.20;;;;;;5044984;28;20388;-77
2022/10/18 09:18:12;;;;;;;;;;;16.60;97.20;;;;;;5040826;28;20305;-77
2022/10/18 09:20:45;;;;;;;;;;;16.60;97.20;;;;;;5039707;28;19933;-77
2022/10/18 09:23:16;;;;;;;;;;;16.70;97.20;;;;;;5045570;28;19932;-76
2022/10/18 09:25:45;;;;;;;;;;;16.70;97.20;;;;;;5040160;28;19929;-77
2022/10/18 09:28:15;;;;;;;;;;;16.60;97.20;;;;;;5045030;28;19933;-77
2022/10/18 09:30:45;;;;;;;;;;;16.70;97.20;;;;;;5042346;28;19963;-77
2022/10/18 09:33:19;;;;;;;;;;;16.70;97.20;;;;;;5040490;28;20294;-77
2022/10/18 09:35:49;;;;;;;;;;;16.70;97.20;;;;;;5038232;28;19928;-77
2022/10/18 09:38:18;;;;;;;;;;;16.70;97.20;;;;;;5041867;28;19939;-77
2022/10/18 09:40:48;;;;;;;;;;;16.80;97.30;;;;;;5042648;28;19932;-76
2022/10/18 09:43:17;;;;;;;;;;;16.80;97.30;;;;;;5041253;28;19933;-77
2022/10/18 09:45:45;;;;;;;;;;;16.80;97.20;;;;;;5042210;28;19929;-77
2022/10/18 09:48:13;;;;;;;;;;;16.90;97.20;;;;;;5042735;28;19928;-77
2022/10/18 09:50:42;;;;;;;;;;;17.00;97.20;;;;;;5036640;28;19940;-77
2022/10/18 09:53:15;;;;;;;;;;;17.00;97.10;;;;;;5041939;28;19925;-77
2022/10/18 09:55:49;;;;;;;;;;;17.10;97.00;;;;;;5041710;28;20396;-77
2022/10/18 09:58:17;;;;;;;;;;;17.20;96.90;;;;;;5041394;28;19940;-76
2022/10/18 10:00:46;;;;;;;;;;;17.30;96.70;;;;;;5040102;28;19951;-77
2022/10/18 10:03:13;;;;;;;;;;;17.30;96.60;;;;;;5041689;28;19928;-77
2022/10/18 10:05:40;;;;;;;;;;;17.40;96.40;;;;;;5042245;28;19929;-77
2022/10/18 10:08:06;;;;;;;;;;;17.50;96.30;;;;;;5040695;28;19935;-77
2022/10/18 10:10:33;;;;;;;;;;;17.50;96.10;;;;;;5042779;28;19933;-77
2022/10/18 10:13:05;;;;;;;;;;;17.60;96.00;;;;;;5039970;28;19944;-77
2022/10/18 10:15:35;;;;;;;;;;;17.60;95.80;;;;;;5041036;28;19994;-77
2022/10/18 10:18:02;;;;;;;;;;;17.70;95.70;;;;;;5040498;28;19931;-77
2022/10/18 10:20:32;;;;;;;;;;;17.80;95.60;;;;;;5043304;28;20391;-78
2022/10/18 10:23:05;;;;;;;;;;;17.90;95.50;;;;;;5043264;28;20312;-77
2022/10/18 10:25:34;;;;;;;;;;;18.00;95.30;;;;;;5036917;28;19928;-77
2022/10/18 10:28:02;;;;;;;;;;;18.00;95.20;;;;;;5040595;28;19924;-77
2022/10/18 10:30:30;;;;;;;;;;;18.10;95.10;;;;;;5039677;28;19937;-77
2022/10/18 10:32:58;;;;;;;;;;;18.20;95.00;;;;;;5041625;28;19929;-77
2022/10/18 10:35:30;;;;;;;;;;;18.30;94.90;;;;;;5043420;28;19933;-77
2022/10/18 10:37:57;;;;;;;;;;;18.30;94.80;;;;;;5043015;28;19936;-77
2022/10/18 10:40:24;;;;;;;;;;;18.30;94.70;;;;;;5043759;28;19933;-77
2022/10/18 10:42:55;;;;;;;;;;;18.40;94.60;;;;;;5035872;28;19929;-78
2022/10/18 10:45:23;;;;;;;;;;;18.40;94.60;;;;;;5040918;28;19936;-77
2022/10/18 10:47:50;;;;;;;;;;;18.50;94.50;;;;;;5040686;28;19933;-77
2022/10/18 10:50:23;;;;;;;;;;;18.60;94.50;;;;;;5042928;28;20020;-77
2022/10/18 10:52:50;;;;;;;;;;;18.60;94.50;;;;;;5040508;28;19950;-77
2022/10/18 10:55:18;;;;;;;;;;;18.60;94.50;;;;;;5041652;28;19936;-79
2022/10/18 10:57:45;;;;;;;;;;;18.70;94.50;;;;;;5040867;28;19929;-77
2022/10/18 11:00:27;;;;;;;;;;;18.70;94.40;;;;;;5043367;28;19936;-78
2022/10/18 11:03:04;;;;;;;;;;;18.80;94.40;;;;;;5036024;28;19936;-78
2022/10/18 11:05:41;;;;;;;;;;;18.80;94.20;;;;;;5045294;28;19928;-79
2022/10/18 11:08:09;;;;;;;;;;;18.90;94.30;;;;;;5039000;28;19935;-79
2022/10/18 11:10:40;;;;;;;;;;;18.90;94.10;;;;;;5038611;28;19939;-80
2022/10/18 11:13:17;;;;;;;;;;;19.00;94.10;;;;;;5041785;28;19929;-79
2022/10/18 11:15:47;;;;;;;;;;;19.00;93.90;;;;;;5039515;28;20082;-80
2022/10/18 11:18:18;;;;;;;;;;;19.10;94.00;;;;;;5041698;28;19956;-79
2022/10/18 11:20:49;;;;;;;;;;;19.10;93.90;;;;;;5045282;28;19974;-81
2022/10/18 11:23:16;;;;;;;;;;;19.10;93.90;;;;;;5048662;28;19928;-80
2022/10/18 11:25:57;;;;;;;;;;;19.00;93.90;;;;;;5044161;28;19935;-79
2022/10/18 11:28:30;;;;;;;;;;;19.10;94.00;;;;;;5042876;28;19933;-79
2022/10/18 11:31:05;;;;;;;;;;;19.10;93.90;;;;;;5046638;28;19933;-78
2022/10/18 11:33:36;;;;;;;;;;;19.10;93.90;;;;;;5050627;28;19928;-79
2022/10/18 11:36:07;;;;;;;;;;;19.20;93.80;;;;;;5048824;28;19928;-79
2022/10/18 11:38:35;;;;;;;;;;;19.20;93.80;;;;;;5042947;28;19933;-79
2022/10/18 11:41:21;;;;;;;;;;;19.30;93.60;;;;;;5049204;28;19939;-79
2022/10/18 11:43:51;;;;;;;;;;;19.30;93.70;;;;;;5050313;28;19935;-78
2022/10/18 11:46:22;;;;;;;;;;;19.40;93.60;;;;;;5049988;28;19936;-78
2022/10/18 11:48:54;;;;;;;;;;;19.40;93.50;;;;;;5049502;28;20039;-79
2022/10/18 11:51:28;;;;;;;;;;;19.50;93.20;;;;;;5046889;28;19924;-79
2022/10/18 11:53:59;;;;;;;;;;;19.50;93.10;;;;;;5048463;28;19925;-79
2022/10/18 11:56:28;;;;;;;;;;;19.60;92.90;;;;;;5045478;28;19933;-79
2022/10/18 11:59:02;;;;;;;;;;;19.70;92.90;;;;;;5050662;28;20296;-79
2022/10/18 12:01:31;;;;;;;;;;;19.70;92.90;;;;;;5046989;28;19986;-79
2022/10/18 12:04:02;;;;;;;;;;;19.80;92.60;;;;;;5050752;28;19933;-79
2022/10/18 12:06:33;;;;;;;;;;;19.80;92.70;;;;;;5049511;28;19929;-78
2022/10/18 12:09:01;;;;;;;;;;;19.80;92.80;;;;;;5043978;28;19933;-78
2022/10/18 12:11:30;;;;;;;;;;;19.80;92.70;;;;;;5044315;28;19936;-79
2022/10/18 12:13:58;;;;;;;;;;;19.90;92.50;;;;;;5049304;28;19939;-79
2022/10/18 12:16:27;;;;;;;;;;;19.90;92.40;;;;;;5047571;28;19929;-79
2022/10/18 12:18:55;;;;;;;;;;;19.90;92.30;;;;;;5047431;28;19928;-79
2022/10/18 12:21:23;;;;;;;;;;;19.90;92.30;;;;;;5049422;28;19929;-79
2022/10/18 12:23:52;;;;;;;;;;;20.00;92.10;;;;;;5047992;28;19924;-79
2022/10/18 12:26:19;;;;;;;;;;;20.00;92.10;;;;;;5046506;28;19932;-79
2022/10/18 12:28:49;;;;;;;;;;;20.00;92.00;;;;;;5042448;28;19929;-78
2022/10/18 12:31:20;;;;;;;;;;;20.00;92.20;;;;;;5046734;28;20397;-80
2022/10/18 12:33:48;;;;;;;;;;;20.00;92.00;;;;;;5046442;28;19936;-78
2022/10/18 12:36:22;;;;;;;;;;;20.10;92.10;;;;;;5048499;28;19959;-78
2022/10/18 12:38:53;;;;;;;;;;;20.10;91.80;;;;;;5048967;28;19933;-80
2022/10/18 12:41:21;;;;;;;;;;;20.20;91.90;;;;;;5044983;28;19936;-79
2022/10/18 12:43:51;;;;;;;;;;;20.20;91.30;;;;;;5049984;28;20413;-80
2022/10/18 12:46:18;;;;;;;;;;;20.40;91.00;;;;;;5049532;28;20012;-79
2022/10/18 12:48:48;;;;;;;;;;;20.40;91.10;;;;;;5052717;28;19928;-80
2022/10/18 12:51:16;;;;;;;;;;;20.40;91.20;;;;;;5051513;28;19932;-79
2022/10/18 12:53:44;;;;;;;;;;;20.50;90.90;;;;;;5048333;28;19929;-79
2022/10/18 12:56:29;;;;;;;;;;;20.60;90.70;;;;;;5050147;28;19935;-79
2022/10/18 12:59:25;;;;;;;;;;;20.60;90.20;;;;;;5040691;28;19929;-80
2022/10/18 13:02:10;;;;;;;;;;;20.60;90.40;;;;;;5037810;28;19956;-77
2022/10/18 13:04:37;;;;;;;;;;;20.80;85.30;;;;;;5038027;28;19933;-69
2022/10/18 13:07:18;;;;;;;;;;;21.00;86.10;;;;;;5041193;28;19928;-69
2022/10/18 13:09:59;;;;;;;;;;;21.20;86.40;;;;;;5041507;28;19967;-69
2022/10/18 13:12:53;;;;;;;;;;;21.30;86.50;;;;;;5041481;28;20773;-69
2022/10/18 13:15:35;;;;;;;;;;;21.50;86.40;;;;;;5000505;28;19955;-69
2022/10/18 13:18:04;;;;;;;;;;;21.60;86.10;;;;;;5038936;28;19964;-70
2022/10/18 13:20:37;;;;;;;;;;;21.70;85.80;;;;;;5042146;28;19936;-70
2022/10/18 13:23:09;;;;;;;;;;;21.70;85.80;;;;;;5045642;28;20567;-69
2022/10/18 13:25:41;;;;;;;;;;;21.80;85.30;;;;;;5038920;28;20401;-69
2022/10/18 13:28:17;;;;;;;;;;;21.80;85.10;;;;;;5039112;28;19936;-70
2022/10/18 13:30:48;;;;;;;;;;;21.80;85.20;;;;;;5039479;28;20510;-69
2022/10/18 13:33:32;;;;;;;;;;;21.80;85.60;;;;;;5043258;28;19932;-69
2022/10/18 13:35:59;;;;;;;;;;;21.80;85.80;;;;;;5043489;28;19932;-69
2022/10/18 13:38:35;;;;;;;;;;;21.80;85.80;;;;;;5043939;28;19928;-69
2022/10/18 13:41:03;;;;;;;;;;;21.80;86.10;;;;;;5038306;28;19932;-77
2022/10/18 13:43:48;;;;;;;;;;;21.80;86.40;;;;;;5036448;28;22091;-77
2022/10/18 13:46:16;;;;;;;;;;;21.80;86.60;;;;;;5039139;28;19940;-78
2022/10/18 13:48:50;;;;;;;;;;;21.80;86.60;;;;;;5037715;28;19929;-78
2022/10/18 13:51:35;;;;;;;;;;;21.80;86.80;;;;;;5042889;28;19928;-79
2022/10/18 13:54:07;;;;;;;;;;;21.80;86.90;;;;;;5038488;28;19928;-78
2022/10/18 13:56:50;;;;;;;;;;;21.70;87.00;;;;;;5037628;28;19944;-78
2022/10/18 13:59:29;;;;;;;;;;;21.70;87.10;;;;;;5042406;28;19929;-79
2022/10/18 14:02:11;;;;;;;;;;;21.70;87.30;;;;;;5039570;28;19937;-78
2022/10/18 14:04:46;;;;;;;;;;;21.70;87.30;;;;;;5041688;28;19933;-78
2022/10/18 14:07:17;;;;;;;;;;;21.70;87.50;;;;;;5039374;28;19929;-78
2022/10/18 14:09:46;;;;;;;;;;;21.70;87.50;;;;;;5029904;28;19936;-78
2022/10/18 14:12:16;;;;;;;;;;;21.70;87.70;;;;;;5041002;28;19932;-77
2022/10/18 14:14:44;;;;;;;;;;;21.70;87.80;;;;;;5040618;28;19929;-78
2022/10/18 14:17:16;;;;;;;;;;;21.60;87.90;;;;;;5035436;28;20015;-79
2022/10/18 14:19:46;;;;;;;;;;;21.70;88.00;;;;;;5037987;28;19936;-79
2022/10/18 14:22:16;;;;;;;;;;;21.60;87.90;;;;;;5037319;28;19928;-77
2022/10/18 14:24:44;;;;;;;;;;;21.60;87.80;;;;;;5032520;28;19936;-78
2022/10/18 14:27:12;;;;;;;;;;;21.60;87.80;;;;;;5037686;28;19963;-78